createdAt,value
2022-12-17T00:02:04.809Z,20.91
2022-12-17T00:04:31.142Z,20.90
2022-12-17T00:06:57.607Z,20.91
2022-12-17T00:09:23.911Z,20.90
2022-12-17T00:11:50.550Z,20.90
2022-12-17T00:14:18.327Z,20.90
2022-12-17T00:16:44.640Z,20.92
2022-12-17T00:19:10.995Z,20.90
2022-12-17T00:21:37.315Z,20.91
2022-12-17T00:24:03.846Z,20.89
2022-12-17T00:26:30.468Z,20.89
2022-12-17T00:28:56.819Z,20.88
2022-12-17T00:31:26.335Z,20.88
2022-12-17T00:33:52.671Z,20.89
2022-12-17T00:36:18.982Z,20.89
2022-12-17T00:38:45.811Z,20.88
2022-12-17T00:41:12.076Z,20.88
2022-12-17T00:43:39.305Z,20.89
2022-12-17T00:46:05.894Z,20.88
2022-12-17T00:48:34.228Z,20.89
2022-12-17T00:51:00.739Z,20.89
2022-12-17T00:53:27.068Z,20.89
2022-12-17T00:55:53.474Z,20.87
2022-12-17T00:58:19.758Z,20.86
2022-12-17T01:00:46.188Z,20.86
2022-12-17T01:03:13.096Z,20.87
2022-12-17T01:05:40.770Z,20.86
2022-12-17T01:08:07.577Z,20.86
2022-12-17T01:10:34.379Z,20.84
2022-12-17T01:13:00.719Z,20.83
2022-12-17T01:15:27.015Z,20.85
2022-12-17T01:17:53.361Z,20.86
2022-12-17T01:20:22.728Z,20.84
2022-12-17T01:22:50.332Z,20.83
2022-12-17T01:25:16.740Z,20.82
2022-12-17T01:27:43.174Z,20.84
2022-12-17T01:30:09.710Z,20.83
2022-12-17T01:32:36.042Z,20.81
2022-12-17T01:35:02.378Z,20.81
2022-12-17T01:37:28.704Z,20.81
2022-12-17T01:39:56.327Z,20.81
2022-12-17T01:42:22.703Z,20.80
2022-12-17T01:44:50.572Z,20.83
2022-12-17T01:47:17.365Z,20.79
2022-12-17T01:49:43.689Z,20.79
2022-12-17T01:52:11.868Z,20.79
2022-12-17T01:54:39.426Z,20.78
2022-12-17T01:57:07.701Z,20.79
2022-12-17T01:59:38.322Z,20.78
2022-12-17T02:02:04.770Z,20.79
2022-12-17T02:04:31.663Z,20.77
2022-12-17T02:07:03.950Z,20.78
2022-12-17T02:09:36.733Z,20.79
2022-12-17T02:12:07.609Z,20.79
2022-12-17T02:14:40.088Z,20.77
2022-12-17T02:17:11.179Z,20.76
2022-12-17T02:19:44.290Z,20.76
2022-12-17T02:22:16.917Z,20.76
2022-12-17T02:24:47.593Z,20.75
2022-12-17T02:27:15.515Z,20.74
2022-12-17T02:29:43.425Z,20.75
2022-12-17T02:32:10.786Z,20.75
2022-12-17T02:34:42.967Z,20.74
2022-12-17T02:37:09.290Z,20.75
2022-12-17T02:39:36.351Z,20.73
2022-12-17T02:42:02.868Z,20.73
2022-12-17T02:44:31.749Z,20.75
2022-12-17T02:46:59.590Z,20.72
2022-12-17T02:49:26.011Z,20.72
2022-12-17T02:51:53.836Z,20.72
2022-12-17T02:54:20.152Z,20.72
2022-12-17T02:56:46.445Z,20.72
2022-12-17T02:59:12.916Z,20.72
2022-12-17T03:01:40.859Z,20.70
2022-12-17T03:04:07.210Z,20.71
2022-12-17T03:06:33.530Z,20.72
2022-12-17T03:08:59.818Z,20.71
2022-12-17T03:11:27.897Z,20.71
2022-12-17T03:13:54.186Z,20.70
2022-12-17T03:16:20.726Z,20.70
2022-12-17T03:18:49.785Z,20.70
2022-12-17T03:21:16.088Z,20.71
2022-12-17T03:23:42.372Z,20.70
2022-12-17T03:26:08.670Z,20.71
2022-12-17T03:28:35.009Z,20.71
2022-12-17T03:31:01.419Z,20.70
2022-12-17T03:33:27.942Z,20.70
2022-12-17T03:35:55.539Z,20.70
2022-12-17T03:38:21.827Z,20.69
2022-12-17T03:40:49.854Z,20.70
2022-12-17T03:43:16.161Z,20.69
2022-12-17T03:45:42.586Z,20.68
2022-12-17T03:48:09.869Z,20.70
2022-12-17T03:50:36.268Z,20.70
2022-12-17T03:53:05.007Z,20.69
2022-12-17T03:55:31.303Z,20.69
2022-12-17T03:57:57.631Z,20.70
2022-12-17T04:00:23.949Z,20.68
2022-12-17T04:02:50.492Z,20.69
2022-12-17T04:05:20.335Z,20.68
2022-12-17T04:07:46.984Z,20.68
2022-12-17T04:10:14.690Z,20.66
2022-12-17T04:12:41.000Z,20.68
2022-12-17T04:15:07.648Z,20.67
2022-12-17T04:17:33.976Z,20.68
2022-12-17T04:20:00.310Z,20.68
2022-12-17T04:22:26.672Z,20.68
2022-12-17T04:24:52.935Z,20.67
2022-12-17T04:27:20.540Z,20.66
2022-12-17T04:29:46.863Z,20.66
2022-12-17T04:32:13.242Z,20.66
2022-12-17T04:34:39.532Z,20.67
2022-12-17T04:37:06.003Z,20.67
2022-12-17T04:39:32.311Z,20.67
2022-12-17T04:41:58.624Z,20.65
2022-12-17T04:44:26.279Z,20.66
2022-12-17T04:46:52.577Z,20.67
2022-12-17T04:49:18.934Z,20.66
2022-12-17T04:51:45.265Z,20.65
2022-12-17T04:54:11.650Z,20.67
2022-12-17T04:56:38.020Z,20.66
2022-12-17T04:59:04.467Z,20.66
2022-12-17T05:01:32.207Z,20.67
2022-12-17T05:03:58.593Z,20.67
2022-12-17T05:06:25.402Z,20.66
2022-12-17T05:08:51.780Z,20.67
2022-12-17T05:11:18.566Z,20.67
2022-12-17T05:13:44.907Z,20.65
2022-12-17T05:16:11.551Z,20.66
2022-12-17T05:18:39.195Z,20.66
2022-12-17T05:21:05.507Z,20.66
2022-12-17T05:23:31.903Z,20.65
2022-12-17T05:26:10.834Z,20.65
2022-12-17T05:28:37.172Z,20.67
2022-12-17T05:31:03.529Z,20.66
2022-12-17T05:33:29.867Z,20.66
2022-12-17T05:36:00.248Z,20.66
2022-12-17T05:38:26.536Z,20.66
2022-12-17T05:40:55.377Z,20.65
2022-12-17T05:43:21.654Z,20.65
2022-12-17T05:45:47.982Z,20.67
2022-12-17T05:48:14.263Z,20.66
2022-12-17T05:50:40.559Z,20.66
2022-12-17T05:53:08.869Z,20.65
2022-12-17T05:55:35.201Z,20.66
2022-12-17T05:58:03.004Z,20.66
2022-12-17T06:00:29.347Z,20.66
2022-12-17T06:02:58.019Z,20.66
2022-12-17T06:05:24.453Z,20.65
2022-12-17T06:07:50.743Z,20.65
2022-12-17T06:10:18.361Z,20.65
2022-12-17T06:12:44.787Z,20.65
2022-12-17T06:15:11.207Z,20.66
2022-12-17T06:17:37.550Z,20.64
2022-12-17T06:20:04.175Z,20.65
2022-12-17T06:22:30.500Z,20.65
2022-12-17T06:24:56.839Z,20.65
2022-12-17T06:27:24.465Z,20.64
2022-12-17T06:29:50.857Z,20.65
2022-12-17T06:32:17.150Z,20.65
2022-12-17T06:34:43.456Z,20.66
2022-12-17T06:37:09.828Z,20.65
2022-12-17T06:39:36.119Z,20.64
2022-12-17T06:42:04.455Z,20.65
2022-12-17T06:44:32.640Z,20.66
2022-12-17T06:46:58.962Z,20.65
2022-12-17T06:49:25.323Z,20.64
2022-12-17T06:51:51.691Z,20.65
2022-12-17T06:54:18.047Z,20.67
2022-12-17T06:56:44.370Z,20.64
2022-12-17T06:59:10.705Z,20.64
2022-12-17T07:01:38.535Z,20.64
2022-12-17T07:04:05.062Z,20.65
2022-12-17T07:06:31.356Z,20.64
2022-12-17T07:08:57.709Z,20.65
2022-12-17T07:11:24.054Z,20.64
2022-12-17T07:13:50.361Z,20.65
2022-12-17T07:16:17.047Z,20.65
2022-12-17T07:18:44.884Z,20.65
2022-12-17T07:21:11.157Z,20.65
2022-12-17T07:23:38.212Z,20.63
2022-12-17T07:26:04.946Z,20.63
2022-12-17T07:28:31.231Z,20.64
2022-12-17T07:30:57.540Z,20.64
2022-12-17T07:33:24.004Z,20.66
2022-12-17T07:35:53.439Z,20.65
2022-12-17T07:38:19.773Z,20.64
2022-12-17T07:40:46.185Z,20.64
2022-12-17T07:43:13.091Z,20.65
2022-12-17T07:45:39.480Z,20.65
2022-12-17T07:48:06.096Z,20.67
2022-12-17T07:50:32.385Z,20.66
2022-12-17T07:53:00.491Z,20.67
2022-12-17T07:55:26.807Z,20.66
2022-12-17T07:58:01.102Z,20.66
2022-12-17T08:00:27.430Z,20.66
2022-12-17T08:02:56.443Z,20.66
2022-12-17T08:05:22.948Z,20.66
2022-12-17T08:07:49.280Z,20.67
2022-12-17T08:10:16.913Z,20.66
2022-12-17T08:12:53.350Z,20.67
2022-12-17T08:15:19.628Z,20.67
2022-12-17T08:17:45.972Z,20.66
2022-12-17T08:20:12.586Z,20.66
2022-12-17T08:22:38.997Z,20.66
2022-12-17T08:25:05.478Z,20.66
2022-12-17T08:27:33.095Z,20.68
2022-12-17T08:29:59.387Z,20.66
2022-12-17T08:32:25.846Z,20.66
2022-12-17T08:34:52.129Z,20.67
2022-12-17T08:37:18.562Z,20.66
2022-12-17T08:39:44.909Z,20.65
2022-12-17T08:42:11.237Z,20.66
2022-12-17T08:44:38.860Z,20.66
2022-12-17T08:47:05.159Z,20.65
2022-12-17T08:49:31.401Z,20.65
2022-12-17T08:51:57.921Z,20.64
2022-12-17T08:54:24.247Z,20.64
2022-12-17T08:56:50.532Z,20.65
2022-12-17T08:59:16.972Z,20.65
2022-12-17T09:01:44.695Z,20.64
2022-12-17T09:04:11.131Z,20.64
2022-12-17T09:06:39.239Z,20.64
2022-12-17T09:09:06.054Z,20.64
2022-12-17T09:11:32.373Z,20.63
2022-12-17T09:13:58.675Z,20.64
2022-12-17T09:16:25.038Z,20.62
2022-12-17T09:18:52.701Z,20.63
2022-12-17T09:21:19.070Z,20.63
2022-12-17T09:23:45.461Z,20.62
2022-12-17T09:26:11.793Z,20.61
2022-12-17T09:28:38.133Z,20.62
2022-12-17T09:31:04.533Z,20.61
2022-12-17T09:33:30.945Z,20.61
2022-12-17T09:35:58.638Z,20.60
2022-12-17T09:38:24.987Z,20.60
2022-12-17T09:40:51.659Z,20.61
2022-12-17T09:43:23.840Z,20.60
2022-12-17T09:45:57.169Z,20.60
2022-12-17T09:48:32.107Z,20.59
2022-12-17T09:51:00.098Z,20.59
2022-12-17T09:53:32.153Z,20.59
2022-12-17T09:55:58.682Z,20.57
2022-12-17T09:58:26.487Z,20.58
2022-12-17T10:00:59.173Z,20.57
2022-12-17T10:03:27.505Z,20.57
2022-12-17T10:05:54.662Z,20.56
2022-12-17T10:08:22.298Z,20.56
2022-12-17T10:10:48.589Z,20.56
2022-12-17T10:13:16.215Z,20.55
2022-12-17T10:15:43.070Z,20.55
2022-12-17T10:18:11.406Z,20.55
2022-12-17T10:20:39.131Z,20.53
2022-12-17T10:23:05.410Z,20.52
2022-12-17T10:25:33.422Z,20.52
2022-12-17T10:28:00.723Z,20.51
2022-12-17T10:30:28.137Z,20.51
2022-12-17T10:32:55.087Z,20.51
2022-12-17T10:35:23.411Z,20.51
2022-12-17T10:37:49.720Z,20.50
2022-12-17T10:40:19.904Z,20.50
2022-12-17T10:42:47.515Z,20.48
2022-12-17T10:45:23.264Z,20.49
2022-12-17T10:47:49.542Z,20.48
2022-12-17T10:50:17.574Z,20.48
2022-12-17T10:52:44.780Z,20.48
2022-12-17T10:55:18.577Z,20.48
2022-12-17T10:57:45.410Z,20.48
2022-12-17T11:00:21.657Z,20.48
2022-12-17T11:02:48.606Z,20.47
2022-12-17T11:05:18.680Z,20.46
2022-12-17T11:07:45.042Z,20.45
2022-12-17T11:10:15.430Z,20.47
2022-12-17T11:12:43.352Z,20.45
2022-12-17T11:15:16.332Z,20.45
2022-12-17T11:17:44.881Z,20.45
2022-12-17T11:20:21.146Z,20.45
2022-12-17T11:22:49.400Z,20.44
2022-12-17T11:25:23.617Z,20.43
2022-12-17T11:27:53.388Z,20.44
2022-12-17T11:30:20.630Z,20.44
2022-12-17T11:32:54.869Z,20.42
2022-12-17T11:35:26.092Z,20.42
2022-12-17T11:37:59.599Z,20.42
2022-12-17T11:40:29.470Z,20.43
2022-12-17T11:42:58.494Z,20.42
2022-12-17T11:45:29.225Z,20.41
2022-12-17T11:47:59.800Z,20.42
2022-12-17T11:50:28.061Z,20.40
2022-12-17T11:52:58.948Z,20.41
2022-12-17T11:55:27.561Z,20.40
2022-12-17T11:57:57.116Z,20.41
2022-12-17T12:00:24.020Z,20.40
2022-12-17T12:02:54.016Z,20.38
2022-12-17T12:05:30.561Z,20.39
2022-12-17T12:08:04.843Z,20.39
2022-12-17T12:10:36.392Z,20.40
2022-12-17T12:13:09.580Z,20.40
2022-12-17T12:15:41.640Z,20.37
2022-12-17T12:18:10.470Z,20.38
2022-12-17T12:20:46.238Z,20.37
2022-12-17T12:23:19.297Z,20.37
2022-12-17T12:25:49.940Z,20.36
2022-12-17T12:28:20.907Z,20.36
2022-12-17T12:30:53.041Z,20.36
2022-12-17T12:33:24.917Z,20.36
2022-12-17T12:35:57.536Z,20.35
2022-12-17T12:38:26.958Z,20.35
2022-12-17T12:40:58.610Z,20.34
2022-12-17T12:43:28.148Z,20.33
2022-12-17T12:45:58.053Z,20.34
2022-12-17T12:48:32.193Z,20.35
2022-12-17T12:51:03.283Z,20.32
2022-12-17T12:53:29.554Z,20.32
2022-12-17T12:55:55.890Z,20.34
2022-12-17T12:58:25.146Z,20.33
2022-12-17T13:00:52.271Z,20.33
2022-12-17T13:03:28.240Z,20.33
2022-12-17T13:05:56.885Z,20.32
2022-12-17T13:08:25.295Z,20.32
2022-12-17T13:10:52.960Z,20.32
2022-12-17T13:13:27.902Z,20.32
2022-12-17T13:15:56.136Z,20.31
2022-12-17T13:18:26.443Z,20.32
2022-12-17T13:20:58.363Z,20.31
2022-12-17T13:23:27.745Z,20.30
2022-12-17T13:26:03.917Z,20.30
2022-12-17T13:28:30.601Z,20.29
2022-12-17T13:31:00.812Z,20.29
2022-12-17T13:33:30.386Z,20.28
2022-12-17T13:36:03.556Z,20.28
2022-12-17T13:38:39.320Z,20.27
2022-12-17T13:41:10.049Z,20.27
2022-12-17T13:43:39.726Z,20.27
2022-12-17T13:46:06.253Z,20.29
2022-12-17T13:48:32.588Z,20.27
2022-12-17T13:50:59.866Z,20.26
2022-12-17T13:53:26.398Z,20.26
2022-12-17T13:55:54.778Z,20.25
2022-12-17T13:58:22.915Z,20.26
2022-12-17T14:00:49.269Z,20.26
2022-12-17T14:03:28.433Z,20.24
2022-12-17T14:06:04.288Z,20.25
2022-12-17T14:08:32.424Z,20.25
2022-12-17T14:11:06.465Z,20.25
2022-12-17T14:13:34.006Z,20.25
2022-12-17T14:16:00.393Z,20.23
2022-12-17T14:18:26.683Z,20.23
2022-12-17T14:20:55.405Z,20.22
2022-12-17T14:23:24.104Z,20.23
2022-12-17T14:25:50.495Z,20.21
2022-12-17T14:28:22.775Z,20.21
2022-12-17T14:31:24.990Z,20.20
2022-12-17T14:33:36.420Z,20.19
2022-12-17T14:36:05.100Z,20.19
2022-12-17T14:38:38.505Z,20.19
2022-12-17T14:41:08.099Z,20.17
2022-12-17T14:43:35.742Z,20.17
2022-12-17T14:46:02.134Z,20.17
2022-12-17T14:48:28.514Z,20.17
2022-12-17T14:50:55.133Z,20.17
2022-12-17T14:53:24.399Z,20.16
2022-12-17T14:55:55.563Z,20.16
2022-12-17T14:58:23.127Z,20.16
2022-12-17T15:00:53.035Z,20.15
2022-12-17T15:03:21.319Z,20.16
2022-12-17T15:05:50.132Z,20.16
2022-12-17T15:08:16.439Z,20.15
2022-12-17T15:10:42.782Z,20.14
2022-12-17T15:13:09.160Z,20.14
2022-12-17T15:15:35.455Z,20.14
2022-12-17T15:18:03.098Z,20.14
2022-12-17T15:20:29.529Z,20.14
2022-12-17T15:22:55.846Z,20.14
2022-12-17T15:25:22.154Z,20.13
2022-12-17T15:27:48.532Z,20.16
2022-12-17T15:30:15.450Z,20.15
2022-12-17T15:32:41.995Z,20.15
2022-12-17T15:35:11.004Z,20.15
2022-12-17T15:37:37.320Z,20.15
2022-12-17T15:40:03.852Z,20.15
2022-12-17T15:42:30.126Z,20.17
2022-12-17T15:44:56.544Z,20.16
2022-12-17T15:47:22.849Z,20.18
2022-12-17T15:49:49.156Z,20.18
2022-12-17T15:52:16.813Z,20.18
2022-12-17T15:54:43.169Z,20.17
2022-12-17T15:57:13.956Z,20.18
2022-12-17T15:59:43.258Z,20.18
2022-12-17T16:02:10.333Z,20.19
2022-12-17T16:04:36.777Z,20.18
2022-12-17T16:07:03.208Z,20.17
2022-12-17T16:09:30.785Z,20.19
2022-12-17T16:11:57.406Z,20.19
2022-12-17T16:14:24.100Z,20.19
2022-12-17T16:16:50.938Z,20.21
2022-12-17T16:19:17.677Z,20.20
2022-12-17T16:21:46.977Z,20.21
2022-12-17T16:24:13.574Z,20.20
2022-12-17T16:26:41.213Z,20.21
2022-12-17T16:29:07.699Z,20.22
2022-12-17T16:31:34.419Z,20.22
2022-12-17T16:34:00.957Z,20.21
2022-12-17T16:36:27.378Z,20.23
2022-12-17T16:38:54.803Z,20.24
2022-12-17T16:41:22.204Z,20.23
2022-12-17T16:43:50.156Z,20.23
2022-12-17T16:46:24.618Z,20.23
2022-12-17T16:48:51.299Z,20.24
2022-12-17T16:51:28.226Z,20.24
2022-12-17T16:53:55.719Z,20.25
2022-12-17T16:56:23.193Z,20.24
2022-12-17T16:58:51.570Z,20.25
2022-12-17T17:01:18.687Z,20.25
2022-12-17T17:03:45.592Z,20.26
2022-12-17T17:06:12.216Z,20.25
2022-12-17T17:08:39.862Z,20.26
2022-12-17T17:11:07.509Z,20.25
2022-12-17T17:13:33.969Z,20.25
2022-12-17T17:16:01.832Z,20.25
2022-12-17T17:18:28.335Z,20.26
2022-12-17T17:20:54.933Z,20.24
2022-12-17T17:23:21.477Z,20.24
2022-12-17T17:25:58.385Z,20.26
2022-12-17T17:28:25.086Z,20.26
2022-12-17T17:30:58.224Z,20.25
2022-12-17T17:33:29.839Z,20.26
2022-12-17T17:36:04.204Z,20.26
2022-12-17T17:38:32.066Z,20.26
2022-12-17T17:40:58.361Z,20.27
2022-12-17T17:43:24.867Z,20.25
2022-12-17T17:45:51.153Z,20.25
2022-12-17T17:48:17.463Z,20.26
2022-12-17T17:50:56.427Z,20.26
2022-12-17T17:53:22.858Z,20.26
2022-12-17T17:55:49.218Z,20.25
2022-12-17T17:58:15.536Z,20.26
2022-12-17T18:00:41.843Z,20.26
2022-12-17T18:03:08.204Z,20.25
2022-12-17T18:05:41.275Z,20.25
2022-12-17T18:08:09.830Z,20.27
2022-12-17T18:10:36.152Z,20.26
2022-12-17T18:13:02.571Z,20.25
2022-12-17T18:15:28.874Z,20.25
2022-12-17T18:17:55.174Z,20.25
2022-12-17T18:20:21.498Z,20.25
2022-12-17T18:22:48.091Z,20.24
2022-12-17T18:25:16.432Z,20.25
2022-12-17T18:27:42.779Z,20.25
2022-12-17T18:30:09.487Z,20.26
2022-12-17T18:32:35.812Z,20.25
2022-12-17T18:35:02.131Z,20.25
2022-12-17T18:37:28.423Z,20.24
2022-12-17T18:39:54.852Z,20.22
2022-12-17T18:42:22.415Z,20.23
2022-12-17T18:44:48.697Z,20.24
2022-12-17T18:47:15.097Z,20.24
2022-12-17T18:49:41.455Z,20.22
2022-12-17T18:52:13.172Z,20.23
2022-12-17T18:54:42.916Z,20.23
2022-12-17T18:57:09.308Z,20.22
2022-12-17T18:59:36.939Z,20.23
2022-12-17T19:02:03.357Z,20.22
2022-12-17T19:04:29.771Z,20.22
2022-12-17T19:06:56.077Z,20.22
2022-12-17T19:09:23.621Z,20.22
2022-12-17T19:11:50.243Z,20.22
2022-12-17T19:14:16.586Z,20.22
2022-12-17T19:16:44.707Z,20.21
2022-12-17T19:19:11.141Z,20.21
2022-12-17T19:21:37.467Z,20.20
2022-12-17T19:24:05.287Z,20.21
2022-12-17T19:26:31.839Z,20.21
2022-12-17T19:28:58.980Z,20.21
2022-12-17T19:31:30.331Z,20.20
2022-12-17T19:33:58.887Z,20.20
2022-12-17T19:36:28.739Z,20.20
2022-12-17T19:38:55.986Z,20.21
2022-12-17T19:41:22.721Z,20.20
2022-12-17T19:43:53.070Z,20.20
2022-12-17T19:46:19.857Z,20.19
2022-12-17T19:48:48.876Z,20.20
2022-12-17T19:51:18.100Z,20.20
2022-12-17T19:53:45.863Z,20.19
2022-12-17T19:56:12.978Z,20.18
2022-12-17T19:58:40.007Z,20.19
2022-12-17T20:01:06.984Z,20.20
2022-12-17T20:03:33.434Z,20.19
2022-12-17T20:05:59.935Z,20.19
2022-12-17T20:08:27.530Z,20.18
2022-12-17T20:10:53.820Z,20.19
2022-12-17T20:13:20.086Z,20.18
2022-12-17T20:15:46.469Z,20.18
2022-12-17T20:18:12.760Z,20.18
2022-12-17T20:20:39.082Z,20.16
2022-12-17T20:23:05.358Z,20.18
2022-12-17T20:25:33.003Z,20.19
2022-12-17T20:27:59.326Z,20.18
2022-12-17T20:30:25.767Z,20.18
2022-12-17T20:32:52.118Z,20.19
2022-12-17T20:35:18.533Z,20.16
2022-12-17T20:37:44.869Z,20.17
2022-12-17T20:40:11.197Z,20.14
2022-12-17T20:42:38.813Z,20.18
2022-12-17T20:45:05.381Z,20.17
2022-12-17T20:47:31.830Z,20.16
2022-12-17T20:49:58.115Z,20.16
2022-12-17T20:52:24.448Z,20.17
2022-12-17T20:54:50.784Z,20.16
2022-12-17T20:57:17.181Z,20.16
2022-12-17T20:59:44.839Z,20.15
2022-12-17T21:02:11.378Z,20.16
2022-12-17T21:04:38.028Z,20.16
2022-12-17T21:07:04.318Z,20.16
2022-12-17T21:09:30.639Z,20.16
2022-12-17T21:11:56.956Z,20.16
2022-12-17T21:14:23.283Z,20.16
2022-12-17T21:16:50.938Z,20.17
2022-12-17T21:19:18.425Z,20.16
2022-12-17T21:21:45.080Z,20.19
2022-12-17T21:24:11.437Z,20.18
2022-12-17T21:26:38.823Z,20.18
2022-12-17T21:29:06.112Z,20.19
2022-12-17T21:31:33.957Z,20.20
2022-12-17T21:34:02.543Z,20.18
2022-12-17T21:36:29.992Z,20.19
2022-12-17T21:38:57.770Z,20.18
2022-12-17T21:41:25.042Z,20.18
2022-12-17T21:43:52.724Z,20.19
2022-12-17T21:46:19.238Z,20.19
2022-12-17T21:48:46.166Z,20.20
2022-12-17T21:51:14.220Z,20.19
2022-12-17T21:53:40.953Z,20.20
2022-12-17T21:56:08.851Z,20.20
2022-12-17T21:58:35.708Z,20.19
2022-12-17T22:01:07.491Z,20.18
2022-12-17T22:03:35.756Z,20.20
2022-12-17T22:06:04.911Z,20.19
2022-12-17T22:08:32.781Z,20.20
2022-12-17T22:10:59.422Z,20.19
2022-12-17T22:13:25.743Z,20.22
2022-12-17T22:15:52.076Z,20.21
2022-12-17T22:18:18.385Z,20.23
2022-12-17T22:20:44.712Z,20.23
2022-12-17T22:23:11.109Z,20.22
2022-12-17T22:25:40.068Z,20.22
2022-12-17T22:28:06.389Z,20.22
2022-12-17T22:30:32.694Z,20.23
2022-12-17T22:32:59.034Z,20.24
2022-12-17T22:36:52.638Z,20.24
2022-12-17T22:40:28.862Z,20.23
2022-12-17T22:44:20.060Z,20.23
2022-12-17T22:44:41.940Z,20.25
2022-12-17T22:46:38.242Z,20.24
2022-12-17T22:49:04.556Z,20.25
2022-12-17T22:51:38.557Z,20.24
2022-12-17T22:54:08.190Z,20.24
2022-12-17T22:57:27.914Z,20.24
2022-12-17T22:59:22.752Z,20.26
2022-12-17T23:01:49.095Z,20.25
2022-12-17T23:04:16.193Z,20.27
2022-12-17T23:06:42.912Z,20.27
2022-12-17T23:09:09.352Z,20.27
2022-12-17T23:11:36.951Z,20.26
2022-12-17T23:14:03.698Z,20.27
2022-12-17T23:16:30.087Z,20.26
2022-12-17T23:18:56.433Z,20.27
2022-12-17T23:21:23.805Z,20.28
2022-12-17T23:23:50.171Z,20.29
2022-12-17T23:26:17.368Z,20.29
2022-12-17T23:28:45.483Z,20.27
2022-12-17T23:31:12.720Z,20.26
2022-12-17T23:33:39.725Z,20.26
2022-12-17T23:36:07.397Z,20.27
2022-12-17T23:38:33.758Z,20.27
2022-12-17T23:41:04.148Z,20.29
2022-12-17T23:43:30.509Z,20.29
2022-12-17T23:45:58.244Z,20.27
2022-12-17T23:48:24.533Z,20.29
2022-12-17T23:50:50.840Z,20.28
2022-12-17T23:53:17.158Z,20.29
2022-12-17T23:55:43.418Z,20.29
2022-12-17T23:58:09.725Z,20.27
